sensor_id;sensor_type;location;lat;lon;timestamp;temperature;humidity
14901;DHT22;7542;49.078;9.194;2023-06-14T00:00:33;28.90;35.00
14901;DHT22;7542;49.078;9.194;2023-06-14T00:01:42;28.90;34.90
14901;DHT22;7542;49.078;9.194;2023-06-14T00:02:48;28.90;34.90
14901;DHT22;7542;49.078;9.194;2023-06-14T00:03:50;29.00;35.40
14901;DHT22;7542;49.078;9.194;2023-06-14T00:04:52;28.90;34.90
14901;DHT22;7542;49.078;9.194;2023-06-14T00:05:54;26.10;33.80
14901;DHT22;7542;49.078;9.194;2023-06-14T00:06:56;28.80;34.80
14901;DHT22;7542;49.078;9.194;2023-06-14T00:07:58;28.80;34.80
14901;DHT22;7542;49.078;9.194;2023-06-14T00:09:02;28.90;34.80
14901;DHT22;7542;49.078;9.194;2023-06-14T00:10:04;28.80;34.80
14901;DHT22;7542;49.078;9.194;2023-06-14T00:11:07;28.80;34.90
14901;DHT22;7542;49.078;9.194;2023-06-14T00:12:09;28.70;34.90
14901;DHT22;7542;49.078;9.194;2023-06-14T00:13:11;28.70;34.90
14901;DHT22;7542;49.078;9.194;2023-06-14T00:14:13;28.80;34.90
14901;DHT22;7542;49.078;9.194;2023-06-14T00:15:15;28.70;34.90
14901;DHT22;7542;49.078;9.194;2023-06-14T00:16:17;28.70;35.00
14901;DHT22;7542;49.078;9.194;2023-06-14T00:17:21;28.60;35.10
14901;DHT22;7542;49.078;9.194;2023-06-14T00:18:23;28.60;35.20
14901;DHT22;7542;49.078;9.194;2023-06-14T00:19:26;28.60;35.40
14901;DHT22;7542;49.078;9.194;2023-06-14T00:20:29;28.60;35.50
14901;DHT22;7542;49.078;9.194;2023-06-14T00:21:33;28.50;35.60
14901;DHT22;7542;49.078;9.194;2023-06-14T00:22:34;28.50;35.80
14901;DHT22;7542;49.078;9.194;2023-06-14T00:23:38;28.50;35.90
14901;DHT22;7542;49.078;9.194;2023-06-14T00:24:40;28.40;36.00
14901;DHT22;7542;49.078;9.194;2023-06-14T00:25:42;28.50;36.10
14901;DHT22;7542;49.078;9.194;2023-06-14T00:26:44;26.00;35.20
14901;DHT22;7542;49.078;9.194;2023-06-14T00:27:47;28.40;36.20
14901;DHT22;7542;49.078;9.194;2023-06-14T00:28:49;28.30;36.30
14901;DHT22;7542;49.078;9.194;2023-06-14T00:29:51;28.30;36.40
14901;DHT22;7542;49.078;9.194;2023-06-14T00:30:53;28.30;36.40
14901;DHT22;7542;49.078;9.194;2023-06-14T00:31:55;28.30;36.50
14901;DHT22;7542;49.078;9.194;2023-06-14T00:32:57;28.20;36.50
14901;DHT22;7542;49.078;9.194;2023-06-14T00:33:59;28.20;36.60
14901;DHT22;7542;49.078;9.194;2023-06-14T00:35:02;28.20;36.60
14901;DHT22;7542;49.078;9.194;2023-06-14T00:36:04;28.20;36.70
14901;DHT22;7542;49.078;9.194;2023-06-14T00:37:06;28.20;36.70
14901;DHT22;7542;49.078;9.194;2023-06-14T00:38:08;28.20;36.70
14901;DHT22;7542;49.078;9.194;2023-06-14T00:39:10;28.10;36.80
14901;DHT22;7542;49.078;9.194;2023-06-14T00:40:13;28.10;36.80
14901;DHT22;7542;49.078;9.194;2023-06-14T00:41:16;28.10;36.90
14901;DHT22;7542;49.078;9.194;2023-06-14T00:42:25;28.10;36.80
14901;DHT22;7542;49.078;9.194;2023-06-14T00:43:28;28.00;36.80
14901;DHT22;7542;49.078;9.194;2023-06-14T00:44:29;28.00;36.80
14901;DHT22;7542;49.078;9.194;2023-06-14T00:45:31;28.00;36.90
14901;DHT22;7542;49.078;9.194;2023-06-14T00:46:37;28.00;36.90
14901;DHT22;7542;49.078;9.194;2023-06-14T00:47:41;28.00;36.90
14901;DHT22;7542;49.078;9.194;2023-06-14T00:48:45;28.00;36.90
14901;DHT22;7542;49.078;9.194;2023-06-14T00:49:47;28.00;36.90
14901;DHT22;7542;49.078;9.194;2023-06-14T00:50:52;28.00;36.90
14901;DHT22;7542;49.078;9.194;2023-06-14T00:51:55;28.00;36.90
14901;DHT22;7542;49.078;9.194;2023-06-14T00:52:57;28.00;36.80
14901;DHT22;7542;49.078;9.194;2023-06-14T00:54:00;28.00;36.90
14901;DHT22;7542;49.078;9.194;2023-06-14T00:55:02;28.00;36.80
14901;DHT22;7542;49.078;9.194;2023-06-14T00:56:04;28.00;36.90
14901;DHT22;7542;49.078;9.194;2023-06-14T00:57:07;28.00;36.80
14901;DHT22;7542;49.078;9.194;2023-06-14T00:58:09;27.90;36.30
14901;DHT22;7542;49.078;9.194;2023-06-14T00:59:12;27.90;36.30
14901;DHT22;7542;49.078;9.194;2023-06-14T01:00:15;27.80;36.40
14901;DHT22;7542;49.078;9.194;2023-06-14T01:01:18;27.90;36.40
14901;DHT22;7542;49.078;9.194;2023-06-14T01:02:20;27.90;36.50
14901;DHT22;7542;49.078;9.194;2023-06-14T01:03:22;27.90;36.60
14901;DHT22;7542;49.078;9.194;2023-06-14T01:04:24;27.90;36.60
14901;DHT22;7542;49.078;9.194;2023-06-14T01:05:26;27.80;36.70
14901;DHT22;7542;49.078;9.194;2023-06-14T01:08:40;27.80;36.90
14901;DHT22;7542;49.078;9.194;2023-06-14T01:12:09;27.80;37.00
14901;DHT22;7542;49.078;9.194;2023-06-14T01:13:24;27.70;37.10
14901;DHT22;7542;49.078;9.194;2023-06-14T01:14:31;27.70;37.10
14901;DHT22;7542;49.078;9.194;2023-06-14T01:15:37;27.70;37.20
14901;DHT22;7542;49.078;9.194;2023-06-14T01:16:40;27.70;37.20
14901;DHT22;7542;49.078;9.194;2023-06-14T01:17:44;27.60;37.30
14901;DHT22;7542;49.078;9.194;2023-06-14T01:18:48;27.60;37.30
14901;DHT22;7542;49.078;9.194;2023-06-14T01:19:53;27.60;37.40
14901;DHT22;7542;49.078;9.194;2023-06-14T01:20:59;27.60;37.40
14901;DHT22;7542;49.078;9.194;2023-06-14T01:22:02;27.60;37.40
14901;DHT22;7542;49.078;9.194;2023-06-14T01:23:04;27.50;37.40
14901;DHT22;7542;49.078;9.194;2023-06-14T01:24:06;27.60;37.40
14901;DHT22;7542;49.078;9.194;2023-06-14T01:25:09;27.50;37.40
14901;DHT22;7542;49.078;9.194;2023-06-14T01:26:10;27.50;37.50
14901;DHT22;7542;49.078;9.194;2023-06-14T01:27:14;27.50;37.50
14901;DHT22;7542;49.078;9.194;2023-06-14T01:28:18;27.30;37.60
14901;DHT22;7542;49.078;9.194;2023-06-14T01:29:23;27.50;37.60
14901;DHT22;7542;49.078;9.194;2023-06-14T01:30:27;27.50;37.70
14901;DHT22;7542;49.078;9.194;2023-06-14T01:31:32;27.60;37.70
14901;DHT22;7542;49.078;9.194;2023-06-14T01:32:44;27.50;37.80
14901;DHT22;7542;49.078;9.194;2023-06-14T01:33:51;27.50;37.80
14901;DHT22;7542;49.078;9.194;2023-06-14T01:34:54;27.50;37.80
14901;DHT22;7542;49.078;9.194;2023-06-14T01:35:56;27.50;37.80
14901;DHT22;7542;49.078;9.194;2023-06-14T01:37:00;27.50;37.90
14901;DHT22;7542;49.078;9.194;2023-06-14T01:38:06;27.40;38.00
14901;DHT22;7542;49.078;9.194;2023-06-14T01:39:14;27.40;38.10
14901;DHT22;7542;49.078;9.194;2023-06-14T01:40:18;27.40;38.10
14901;DHT22;7542;49.078;9.194;2023-06-14T01:41:22;27.40;38.20
14901;DHT22;7542;49.078;9.194;2023-06-14T01:42:26;27.40;38.20
14901;DHT22;7542;49.078;9.194;2023-06-14T01:43:31;27.40;38.20
14901;DHT22;7542;49.078;9.194;2023-06-14T01:44:34;27.40;38.20
14901;DHT22;7542;49.078;9.194;2023-06-14T01:45:36;27.40;38.30
14901;DHT22;7542;49.078;9.194;2023-06-14T01:46:40;27.40;38.30
14901;DHT22;7542;49.078;9.194;2023-06-14T01:47:44;27.40;38.30
14901;DHT22;7542;49.078;9.194;2023-06-14T01:48:47;27.30;38.40
14901;DHT22;7542;49.078;9.194;2023-06-14T01:49:50;27.30;38.40
14901;DHT22;7542;49.078;9.194;2023-06-14T01:50:52;27.30;38.40
14901;DHT22;7542;49.078;9.194;2023-06-14T01:51:55;27.30;38.40
14901;DHT22;7542;49.078;9.194;2023-06-14T01:52:57;27.30;38.50
14901;DHT22;7542;49.078;9.194;2023-06-14T01:53:59;27.30;38.50
14901;DHT22;7542;49.078;9.194;2023-06-14T01:55:02;27.20;38.60
14901;DHT22;7542;49.078;9.194;2023-06-14T01:56:04;21.00;36.00
14901;DHT22;7542;49.078;9.194;2023-06-14T01:57:07;27.20;38.60
14901;DHT22;7542;49.078;9.194;2023-06-14T01:58:10;27.10;38.70
14901;DHT22;7542;49.078;9.194;2023-06-14T01:59:12;27.10;38.80
14901;DHT22;7542;49.078;9.194;2023-06-14T02:00:15;27.20;38.80
14901;DHT22;7542;49.078;9.194;2023-06-14T02:01:17;27.10;38.90
14901;DHT22;7542;49.078;9.194;2023-06-14T02:02:20;27.00;38.90
14901;DHT22;7542;49.078;9.194;2023-06-14T02:03:22;27.00;38.90
14901;DHT22;7542;49.078;9.194;2023-06-14T02:04:25;27.00;39.00
14901;DHT22;7542;49.078;9.194;2023-06-14T02:05:27;27.00;38.90
14901;DHT22;7542;49.078;9.194;2023-06-14T02:06:29;27.00;39.00
14901;DHT22;7542;49.078;9.194;2023-06-14T02:07:31;27.00;39.00
14901;DHT22;7542;49.078;9.194;2023-06-14T02:08:33;27.00;39.00
14901;DHT22;7542;49.078;9.194;2023-06-14T02:09:35;27.00;39.00
14901;DHT22;7542;49.078;9.194;2023-06-14T02:10:37;26.90;38.50
14901;DHT22;7542;49.078;9.194;2023-06-14T02:11:39;27.00;39.00
14901;DHT22;7542;49.078;9.194;2023-06-14T02:12:41;27.00;39.00
14901;DHT22;7542;49.078;9.194;2023-06-14T02:13:43;27.00;39.10
14901;DHT22;7542;49.078;9.194;2023-06-14T02:14:46;27.00;39.10
14901;DHT22;7542;49.078;9.194;2023-06-14T02:15:48;26.80;38.60
14901;DHT22;7542;49.078;9.194;2023-06-14T02:16:53;27.00;39.10
14901;DHT22;7542;49.078;9.194;2023-06-14T02:17:55;27.00;39.10
14901;DHT22;7542;49.078;9.194;2023-06-14T02:18:57;27.00;39.10
14901;DHT22;7542;49.078;9.194;2023-06-14T02:19:59;26.90;38.60
14901;DHT22;7542;49.078;9.194;2023-06-14T02:21:01;27.00;39.20
14901;DHT22;7542;49.078;9.194;2023-06-14T02:22:03;26.90;38.60
14901;DHT22;7542;49.078;9.194;2023-06-14T02:23:06;26.90;38.70
14901;DHT22;7542;49.078;9.194;2023-06-14T02:24:09;26.90;38.70
14901;DHT22;7542;49.078;9.194;2023-06-14T02:25:12;26.80;38.70
14901;DHT22;7542;49.078;9.194;2023-06-14T02:26:14;26.90;38.70
14901;DHT22;7542;49.078;9.194;2023-06-14T02:27:16;26.90;38.70
14901;DHT22;7542;49.078;9.194;2023-06-14T02:28:18;26.80;38.70
14901;DHT22;7542;49.078;9.194;2023-06-14T02:29:20;26.80;38.80
14901;DHT22;7542;49.078;9.194;2023-06-14T02:30:22;26.80;38.80
14901;DHT22;7542;49.078;9.194;2023-06-14T02:31:25;26.80;38.80
14901;DHT22;7542;49.078;9.194;2023-06-14T02:32:27;26.80;38.80
14901;DHT22;7542;49.078;9.194;2023-06-14T02:33:29;26.80;38.90
14901;DHT22;7542;49.078;9.194;2023-06-14T02:34:31;26.80;38.90
14901;DHT22;7542;49.078;9.194;2023-06-14T02:35:34;26.80;38.90
14901;DHT22;7542;49.078;9.194;2023-06-14T02:36:36;26.80;38.90
14901;DHT22;7542;49.078;9.194;2023-06-14T02:37:43;26.80;38.90
14901;DHT22;7542;49.078;9.194;2023-06-14T02:38:45;26.70;39.00
14901;DHT22;7542;49.078;9.194;2023-06-14T02:39:48;26.70;39.00
14901;DHT22;7542;49.078;9.194;2023-06-14T02:40:50;26.70;39.00
14901;DHT22;7542;49.078;9.194;2023-06-14T02:41:52;26.70;39.00
14901;DHT22;7542;49.078;9.194;2023-06-14T02:42:54;26.70;39.00
14901;DHT22;7542;49.078;9.194;2023-06-14T02:43:56;26.80;39.00
14901;DHT22;7542;49.078;9.194;2023-06-14T02:45:00;26.70;38.90
14901;DHT22;7542;49.078;9.194;2023-06-14T02:46:03;26.70;38.90
14901;DHT22;7542;49.078;9.194;2023-06-14T02:47:06;26.70;38.90
14901;DHT22;7542;49.078;9.194;2023-06-14T02:48:08;26.70;39.00
14901;DHT22;7542;49.078;9.194;2023-06-14T02:49:11;26.70;38.90
14901;DHT22;7542;49.078;9.194;2023-06-14T02:50:14;26.70;39.00
14901;DHT22;7542;49.078;9.194;2023-06-14T02:51:16;26.70;39.00
14901;DHT22;7542;49.078;9.194;2023-06-14T02:52:18;26.60;39.00
14901;DHT22;7542;49.078;9.194;2023-06-14T02:53:20;26.60;39.10
14901;DHT22;7542;49.078;9.194;2023-06-14T02:54:22;26.60;39.10
14901;DHT22;7542;49.078;9.194;2023-06-14T02:55:24;26.60;39.10
14901;DHT22;7542;49.078;9.194;2023-06-14T02:56:28;26.70;39.10
14901;DHT22;7542;49.078;9.194;2023-06-14T02:57:31;26.60;39.10
14901;DHT22;7542;49.078;9.194;2023-06-14T02:58:33;26.60;39.10
14901;DHT22;7542;49.078;9.194;2023-06-14T02:59:35;26.60;39.20
14901;DHT22;7542;49.078;9.194;2023-06-14T03:00:37;26.60;39.20
14901;DHT22;7542;49.078;9.194;2023-06-14T03:01:40;26.60;39.20
14901;DHT22;7542;49.078;9.194;2023-06-14T03:02:43;26.60;39.20
14901;DHT22;7542;49.078;9.194;2023-06-14T03:03:45;26.60;39.20
14901;DHT22;7542;49.078;9.194;2023-06-14T03:04:47;26.60;39.30
14901;DHT22;7542;49.078;9.194;2023-06-14T03:05:49;26.50;39.30
14901;DHT22;7542;49.078;9.194;2023-06-14T03:06:53;26.50;39.30
14901;DHT22;7542;49.078;9.194;2023-06-14T03:07:55;26.50;39.40
14901;DHT22;7542;49.078;9.194;2023-06-14T03:08:58;26.50;39.40
14901;DHT22;7542;49.078;9.194;2023-06-14T03:10:08;26.50;39.40
14901;DHT22;7542;49.078;9.194;2023-06-14T03:11:11;26.50;39.40
14901;DHT22;7542;49.078;9.194;2023-06-14T03:12:13;26.40;39.50
14901;DHT22;7542;49.078;9.194;2023-06-14T03:13:15;26.40;39.50
14901;DHT22;7542;49.078;9.194;2023-06-14T03:14:18;26.40;39.50
14901;DHT22;7542;49.078;9.194;2023-06-14T03:15:20;26.40;39.60
14901;DHT22;7542;49.078;9.194;2023-06-14T03:16:25;26.40;39.60
14901;DHT22;7542;49.078;9.194;2023-06-14T03:17:30;26.40;39.60
14901;DHT22;7542;49.078;9.194;2023-06-14T03:18:35;26.40;39.70
14901;DHT22;7542;49.078;9.194;2023-06-14T03:19:38;26.30;39.70
14901;DHT22;7542;49.078;9.194;2023-06-14T03:20:40;26.40;39.70
14901;DHT22;7542;49.078;9.194;2023-06-14T03:21:42;26.40;39.70
14901;DHT22;7542;49.078;9.194;2023-06-14T03:22:46;26.40;39.70
14901;DHT22;7542;49.078;9.194;2023-06-14T03:23:49;26.30;39.80
14901;DHT22;7542;49.078;9.194;2023-06-14T03:24:52;26.30;39.70
14901;DHT22;7542;49.078;9.194;2023-06-14T03:25:55;26.30;39.80
14901;DHT22;7542;49.078;9.194;2023-06-14T03:26:57;26.30;39.90
14901;DHT22;7542;49.078;9.194;2023-06-14T03:28:00;26.40;39.80
14901;DHT22;7542;49.078;9.194;2023-06-14T03:29:02;26.30;39.90
14901;DHT22;7542;49.078;9.194;2023-06-14T03:30:04;26.30;39.90
14901;DHT22;7542;49.078;9.194;2023-06-14T03:31:07;26.30;39.90
14901;DHT22;7542;49.078;9.194;2023-06-14T03:32:10;26.30;40.00
14901;DHT22;7542;49.078;9.194;2023-06-14T03:33:12;26.40;40.00
14901;DHT22;7542;49.078;9.194;2023-06-14T03:34:14;26.30;40.00
14901;DHT22;7542;49.078;9.194;2023-06-14T03:35:17;26.20;40.00
14901;DHT22;7542;49.078;9.194;2023-06-14T03:36:19;26.20;40.00
14901;DHT22;7542;49.078;9.194;2023-06-14T03:37:21;26.50;40.00
14901;DHT22;7542;49.078;9.194;2023-06-14T03:38:23;26.20;40.00
14901;DHT22;7542;49.078;9.194;2023-06-14T03:39:25;26.40;40.10
14901;DHT22;7542;49.078;9.194;2023-06-14T03:40:27;26.20;40.10
14901;DHT22;7542;49.078;9.194;2023-06-14T03:41:29;26.20;40.10
14901;DHT22;7542;49.078;9.194;2023-06-14T03:42:31;26.20;40.20
14901;DHT22;7542;49.078;9.194;2023-06-14T03:43:33;26.20;40.20
14901;DHT22;7542;49.078;9.194;2023-06-14T03:44:36;26.20;40.20
14901;DHT22;7542;49.078;9.194;2023-06-14T03:45:38;26.20;40.20
14901;DHT22;7542;49.078;9.194;2023-06-14T03:46:40;26.10;40.20
14901;DHT22;7542;49.078;9.194;2023-06-14T03:47:42;23.30;39.20
14901;DHT22;7542;49.078;9.194;2023-06-14T03:48:44;26.10;40.30
14901;DHT22;7542;49.078;9.194;2023-06-14T03:49:46;26.10;40.20
14901;DHT22;7542;49.078;9.194;2023-06-14T03:50:48;26.10;40.30
14901;DHT22;7542;49.078;9.194;2023-06-14T03:51:50;26.10;40.30
14901;DHT22;7542;49.078;9.194;2023-06-14T03:52:53;26.10;40.40
14901;DHT22;7542;49.078;9.194;2023-06-14T03:53:55;26.10;40.40
14901;DHT22;7542;49.078;9.194;2023-06-14T03:55:17;26.10;40.40
14901;DHT22;7542;49.078;9.194;2023-06-14T03:56:22;26.10;40.50
14901;DHT22;7542;49.078;9.194;2023-06-14T03:57:24;26.10;40.60
14901;DHT22;7542;49.078;9.194;2023-06-14T03:58:26;26.10;40.70
14901;DHT22;7542;49.078;9.194;2023-06-14T03:59:28;26.00;40.80
14901;DHT22;7542;49.078;9.194;2023-06-14T04:00:30;26.00;40.80
14901;DHT22;7542;49.078;9.194;2023-06-14T04:01:32;26.00;40.90
14901;DHT22;7542;49.078;9.194;2023-06-14T04:02:35;26.00;40.90
14901;DHT22;7542;49.078;9.194;2023-06-14T04:03:38;26.00;40.90
14901;DHT22;7542;49.078;9.194;2023-06-14T04:04:42;26.00;40.90
14901;DHT22;7542;49.078;9.194;2023-06-14T04:05:46;26.00;40.80
14901;DHT22;7542;49.078;9.194;2023-06-14T04:06:51;26.00;40.90
14901;DHT22;7542;49.078;9.194;2023-06-14T04:07:53;26.00;40.80
14901;DHT22;7542;49.078;9.194;2023-06-14T04:08:58;26.00;40.90
14901;DHT22;7542;49.078;9.194;2023-06-14T04:10:06;25.90;40.50
14901;DHT22;7542;49.078;9.194;2023-06-14T04:11:09;24.00;40.00
14901;DHT22;7542;49.078;9.194;2023-06-14T04:12:11;26.00;40.90
14901;DHT22;7542;49.078;9.194;2023-06-14T04:13:14;26.00;40.90
14901;DHT22;7542;49.078;9.194;2023-06-14T04:14:16;26.00;40.80
14901;DHT22;7542;49.078;9.194;2023-06-14T04:15:18;25.90;40.50
14901;DHT22;7542;49.078;9.194;2023-06-14T04:16:23;25.90;40.50
14901;DHT22;7542;49.078;9.194;2023-06-14T04:17:25;25.90;40.50
14901;DHT22;7542;49.078;9.194;2023-06-14T04:18:27;25.90;40.50
14901;DHT22;7542;49.078;9.194;2023-06-14T04:19:29;25.90;40.50
14901;DHT22;7542;49.078;9.194;2023-06-14T04:20:31;25.90;40.50
14901;DHT22;7542;49.078;9.194;2023-06-14T04:21:33;25.90;40.40
14901;DHT22;7542;49.078;9.194;2023-06-14T04:22:36;25.90;40.50
14901;DHT22;7542;49.078;9.194;2023-06-14T04:23:38;25.90;40.40
14901;DHT22;7542;49.078;9.194;2023-06-14T04:24:40;25.90;40.40
14901;DHT22;7542;49.078;9.194;2023-06-14T04:25:44;25.90;40.50
14901;DHT22;7542;49.078;9.194;2023-06-14T04:26:48;25.90;40.50
14901;DHT22;7542;49.078;9.194;2023-06-14T04:27:51;25.90;40.50
14901;DHT22;7542;49.078;9.194;2023-06-14T04:28:54;25.90;40.50
14901;DHT22;7542;49.078;9.194;2023-06-14T04:29:58;20.70;38.70
14901;DHT22;7542;49.078;9.194;2023-06-14T04:31:01;25.90;40.50
14901;DHT22;7542;49.078;9.194;2023-06-14T04:32:03;25.90;40.50
14901;DHT22;7542;49.078;9.194;2023-06-14T04:33:07;25.90;40.50
14901;DHT22;7542;49.078;9.194;2023-06-14T04:34:09;25.90;40.50
14901;DHT22;7542;49.078;9.194;2023-06-14T04:35:18;25.80;40.50
14901;DHT22;7542;49.078;9.194;2023-06-14T04:36:20;25.70;40.40
14901;DHT22;7542;49.078;9.194;2023-06-14T04:37:23;21.40;38.90
14901;DHT22;7542;49.078;9.194;2023-06-14T04:38:25;25.80;40.50
14901;DHT22;7542;49.078;9.194;2023-06-14T04:39:28;25.90;40.50
14901;DHT22;7542;49.078;9.194;2023-06-14T04:40:30;25.80;40.50
14901;DHT22;7542;49.078;9.194;2023-06-14T04:41:35;25.80;40.50
14901;DHT22;7542;49.078;9.194;2023-06-14T04:42:37;25.80;40.50
14901;DHT22;7542;49.078;9.194;2023-06-14T04:43:39;25.80;40.50
14901;DHT22;7542;49.078;9.194;2023-06-14T04:44:42;25.80;40.50
14901;DHT22;7542;49.078;9.194;2023-06-14T04:45:45;25.80;40.50
14901;DHT22;7542;49.078;9.194;2023-06-14T04:46:48;25.80;40.50
14901;DHT22;7542;49.078;9.194;2023-06-14T04:47:50;25.80;40.50
14901;DHT22;7542;49.078;9.194;2023-06-14T04:48:54;24.40;40.20
14901;DHT22;7542;49.078;9.194;2023-06-14T04:49:59;25.80;40.50
14901;DHT22;7542;49.078;9.194;2023-06-14T04:51:02;25.80;40.50
14901;DHT22;7542;49.078;9.194;2023-06-14T04:52:05;25.80;40.50
14901;DHT22;7542;49.078;9.194;2023-06-14T04:53:08;25.70;40.50
14901;DHT22;7542;49.078;9.194;2023-06-14T04:54:11;25.70;40.50
14901;DHT22;7542;49.078;9.194;2023-06-14T04:55:15;25.70;40.50
14901;DHT22;7542;49.078;9.194;2023-06-14T04:56:18;25.80;40.50
14901;DHT22;7542;49.078;9.194;2023-06-14T04:57:20;25.80;40.50
14901;DHT22;7542;49.078;9.194;2023-06-14T04:58:24;25.70;40.50
14901;DHT22;7542;49.078;9.194;2023-06-14T04:59:26;25.80;40.50
14901;DHT22;7542;49.078;9.194;2023-06-14T05:00:28;25.70;40.50
14901;DHT22;7542;49.078;9.194;2023-06-14T05:01:32;25.70;40.50
14901;DHT22;7542;49.078;9.194;2023-06-14T05:02:34;25.80;40.50
14901;DHT22;7542;49.078;9.194;2023-06-14T05:03:37;25.70;40.50
14901;DHT22;7542;49.078;9.194;2023-06-14T05:04:39;25.80;40.50
14901;DHT22;7542;49.078;9.194;2023-06-14T05:05:41;25.70;40.50
14901;DHT22;7542;49.078;9.194;2023-06-14T05:06:44;25.70;40.50
14901;DHT22;7542;49.078;9.194;2023-06-14T05:07:46;25.80;40.50
14901;DHT22;7542;49.078;9.194;2023-06-14T05:08:48;25.80;40.50
14901;DHT22;7542;49.078;9.194;2023-06-14T05:09:51;25.70;40.50
14901;DHT22;7542;49.078;9.194;2023-06-14T05:10:52;25.70;40.50
14901;DHT22;7542;49.078;9.194;2023-06-14T05:11:54;25.60;40.50
14901;DHT22;7542;49.078;9.194;2023-06-14T05:12:57;25.70;40.50
14901;DHT22;7542;49.078;9.194;2023-06-14T05:13:59;25.70;40.50
14901;DHT22;7542;49.078;9.194;2023-06-14T05:15:01;25.70;40.50
14901;DHT22;7542;49.078;9.194;2023-06-14T05:16:04;25.70;40.50
14901;DHT22;7542;49.078;9.194;2023-06-14T05:17:06;25.70;40.50
14901;DHT22;7542;49.078;9.194;2023-06-14T05:18:08;25.80;40.50
14901;DHT22;7542;49.078;9.194;2023-06-14T05:19:11;25.80;40.50
14901;DHT22;7542;49.078;9.194;2023-06-14T05:20:13;25.80;40.50
14901;DHT22;7542;49.078;9.194;2023-06-14T05:21:15;25.80;40.50
14901;DHT22;7542;49.078;9.194;2023-06-14T05:22:19;25.90;40.50
14901;DHT22;7542;49.078;9.194;2023-06-14T05:23:22;25.90;40.50
14901;DHT22;7542;49.078;9.194;2023-06-14T05:24:24;25.90;40.50
14901;DHT22;7542;49.078;9.194;2023-06-14T05:25:26;25.90;40.50
14901;DHT22;7542;49.078;9.194;2023-06-14T05:26:29;26.00;40.90
14901;DHT22;7542;49.078;9.194;2023-06-14T05:27:31;25.90;40.50
14901;DHT22;7542;49.078;9.194;2023-06-14T05:28:33;26.00;40.90
14901;DHT22;7542;49.078;9.194;2023-06-14T05:29:36;26.00;40.90
14901;DHT22;7542;49.078;9.194;2023-06-14T05:30:38;26.00;40.90
14901;DHT22;7542;49.078;9.194;2023-06-14T05:31:41;26.00;40.90
14901;DHT22;7542;49.078;9.194;2023-06-14T05:32:43;26.10;40.90
14901;DHT22;7542;49.078;9.194;2023-06-14T05:33:45;26.00;40.90
14901;DHT22;7542;49.078;9.194;2023-06-14T05:34:47;26.00;40.90
14901;DHT22;7542;49.078;9.194;2023-06-14T05:35:49;26.10;40.90
14901;DHT22;7542;49.078;9.194;2023-06-14T05:36:51;26.10;40.90
14901;DHT22;7542;49.078;9.194;2023-06-14T05:37:53;26.10;40.90
14901;DHT22;7542;49.078;9.194;2023-06-14T05:38:55;26.10;40.90
14901;DHT22;7542;49.078;9.194;2023-06-14T05:39:59;26.20;40.90
14901;DHT22;7542;49.078;9.194;2023-06-14T05:41:01;26.20;40.90
14901;DHT22;7542;49.078;9.194;2023-06-14T05:42:03;26.20;40.90
14901;DHT22;7542;49.078;9.194;2023-06-14T05:43:06;26.20;40.90
14901;DHT22;7542;49.078;9.194;2023-06-14T05:44:08;26.20;40.90
14901;DHT22;7542;49.078;9.194;2023-06-14T05:45:10;26.20;40.90
14901;DHT22;7542;49.078;9.194;2023-06-14T05:46:12;26.10;40.90
14901;DHT22;7542;49.078;9.194;2023-06-14T05:47:14;26.20;40.90
14901;DHT22;7542;49.078;9.194;2023-06-14T05:48:16;26.20;40.90
14901;DHT22;7542;49.078;9.194;2023-06-14T05:49:18;26.30;40.90
14901;DHT22;7542;49.078;9.194;2023-06-14T05:50:20;26.30;40.90
14901;DHT22;7542;49.078;9.194;2023-06-14T05:51:23;26.30;40.90
14901;DHT22;7542;49.078;9.194;2023-06-14T05:52:27;26.30;40.90
14901;DHT22;7542;49.078;9.194;2023-06-14T05:53:29;26.30;40.90
14901;DHT22;7542;49.078;9.194;2023-06-14T05:54:31;26.20;40.90
14901;DHT22;7542;49.078;9.194;2023-06-14T05:55:33;26.30;40.90
14901;DHT22;7542;49.078;9.194;2023-06-14T05:56:35;26.30;40.90
14901;DHT22;7542;49.078;9.194;2023-06-14T05:57:37;26.30;40.90
14901;DHT22;7542;49.078;9.194;2023-06-14T05:58:40;26.30;40.90
14901;DHT22;7542;49.078;9.194;2023-06-14T05:59:42;26.40;40.90
14901;DHT22;7542;49.078;9.194;2023-06-14T06:00:45;26.30;40.90
14901;DHT22;7542;49.078;9.194;2023-06-14T06:01:47;26.40;40.90
14901;DHT22;7542;49.078;9.194;2023-06-14T06:02:50;26.30;40.90
14901;DHT22;7542;49.078;9.194;2023-06-14T06:03:52;26.30;40.90
14901;DHT22;7542;49.078;9.194;2023-06-14T06:04:55;26.40;40.90
14901;DHT22;7542;49.078;9.194;2023-06-14T06:05:58;26.40;40.90
14901;DHT22;7542;49.078;9.194;2023-06-14T06:07:00;26.40;40.90
14901;DHT22;7542;49.078;9.194;2023-06-14T06:08:02;26.30;40.90
14901;DHT22;7542;49.078;9.194;2023-06-14T06:09:04;26.50;40.90
14901;DHT22;7542;49.078;9.194;2023-06-14T06:10:07;26.40;40.90
14901;DHT22;7542;49.078;9.194;2023-06-14T06:11:09;26.40;40.90
14901;DHT22;7542;49.078;9.194;2023-06-14T06:12:12;26.40;40.90
14901;DHT22;7542;49.078;9.194;2023-06-14T06:13:14;26.40;40.90
14901;DHT22;7542;49.078;9.194;2023-06-14T06:14:16;26.40;40.90
14901;DHT22;7542;49.078;9.194;2023-06-14T06:15:18;26.40;40.90
14901;DHT22;7542;49.078;9.194;2023-06-14T06:16:20;26.40;40.90
14901;DHT22;7542;49.078;9.194;2023-06-14T06:17:23;26.40;40.90
14901;DHT22;7542;49.078;9.194;2023-06-14T06:18:26;26.40;40.90
14901;DHT22;7542;49.078;9.194;2023-06-14T06:19:29;26.40;40.90
14901;DHT22;7542;49.078;9.194;2023-06-14T06:20:31;26.50;40.90
14901;DHT22;7542;49.078;9.194;2023-06-14T06:21:33;26.50;40.90
14901;DHT22;7542;49.078;9.194;2023-06-14T06:22:35;26.40;40.90
14901;DHT22;7542;49.078;9.194;2023-06-14T06:23:37;26.50;40.90
14901;DHT22;7542;49.078;9.194;2023-06-14T06:24:39;26.40;40.90
14901;DHT22;7542;49.078;9.194;2023-06-14T06:25:43;26.50;40.90
14901;DHT22;7542;49.078;9.194;2023-06-14T06:26:45;26.50;40.90
14901;DHT22;7542;49.078;9.194;2023-06-14T06:27:47;26.50;40.90
14901;DHT22;7542;49.078;9.194;2023-06-14T06:28:49;26.50;40.90
14901;DHT22;7542;49.078;9.194;2023-06-14T06:29:51;26.50;40.90
14901;DHT22;7542;49.078;9.194;2023-06-14T06:30:53;26.60;40.90
14901;DHT22;7542;49.078;9.194;2023-06-14T06:31:55;26.60;40.90
14901;DHT22;7542;49.078;9.194;2023-06-14T06:32:58;26.60;40.90
14901;DHT22;7542;49.078;9.194;2023-06-14T06:34:00;26.60;40.90
14901;DHT22;7542;49.078;9.194;2023-06-14T06:35:02;26.60;40.90
14901;DHT22;7542;49.078;9.194;2023-06-14T06:36:08;26.60;40.90
14901;DHT22;7542;49.078;9.194;2023-06-14T06:37:13;26.60;40.90
14901;DHT22;7542;49.078;9.194;2023-06-14T06:38:15;26.60;40.90
14901;DHT22;7542;49.078;9.194;2023-06-14T06:39:17;26.60;40.90
14901;DHT22;7542;49.078;9.194;2023-06-14T06:40:19;26.60;40.90
14901;DHT22;7542;49.078;9.194;2023-06-14T06:41:21;26.60;40.90
14901;DHT22;7542;49.078;9.194;2023-06-14T06:42:23;26.70;40.90
14901;DHT22;7542;49.078;9.194;2023-06-14T06:43:25;26.70;40.90
14901;DHT22;7542;49.078;9.194;2023-06-14T06:44:27;26.70;41.00
14901;DHT22;7542;49.078;9.194;2023-06-14T06:45:29;26.70;40.90
14901;DHT22;7542;49.078;9.194;2023-06-14T06:46:33;26.70;40.90
14901;DHT22;7542;49.078;9.194;2023-06-14T06:47:36;26.70;40.90